Erma, New Jersey
Current Conditions -  °F | °C
As of 11:55 PM on Saturday 25 Oct 2014 (Local Time) from KWWD Reporting Station
Clear Clear  
Wind Chill: 59°   Ceiling: Unl
Heat Index: 59°   Visibility: 10mi
Dew Point: 45°   Wind: 14mph
Humidity: 59%   Direction: 230°SW
Pressure: 29.69"   Gusts: 21mph
Location:  38.9876°N, 74.9167°W
Report Text: KWWD 260355Z AUTO 23012G18KT 10SM CLR 15/07 A2969 RMK AO1
Loading
Personal Weather Stations






























Interactive Weather Map
Tropical Storm Tracking
New forecast layout! Learn more

10-Day Weather Forecast

Advertisements
Track Severe Weather on mobile